Time;durP1;ratioP1;P1;durP2;ratioP2;P2;SDS_P1;SDS_P2;PMS_P1;PMS_P2;Temp;Humidity;BMP_temperature;BMP_pressure;BME280_temperature;BME280_humidity;BME280_pressure;Samples;Min_cycle;Max_cycle;Signal;HPM_P1;HPM_P2
2021/04/10 12:58:45;;;;;;;2.42;1.00;;;;;;;;;;5146379;27;20316;-76
2021/04/10 13:01:11;;;;;;;1.75;0.75;;;;;;;;;;5147284;27;20027;-74
2021/04/10 13:03:37;;;;;;;2.25;0.75;;;17.10;85.80;;;;;;5149616;27;20050;-77
2021/04/10 13:06:02;;;;;;;4.03;1.02;;;18.10;79.70;;;;;;5149649;27;20758;-76
2021/04/10 13:08:28;;;;;;;1.90;0.50;;;18.10;77.20;;;;;;5144267;27;20050;-76
2021/04/10 13:10:54;;;;;;;2.22;0.80;;;18.50;74.90;;;;;;5149515;27;20092;-74
2021/04/10 13:13:22;;;;;;;2.78;1.27;;;18.70;74.50;;;;;;5150344;27;20034;-75
2021/04/10 13:15:48;;;;;;;0.77;0.60;;;18.40;74.90;;;;;;5150200;27;20030;-75
2021/04/10 13:18:13;;;;;;;2.95;0.85;;;18.60;75.60;;;;;;5149211;27;20131;-76
2021/04/10 13:20:39;;;;;;;5.45;0.90;;;18.90;74.70;;;;;;5152642;27;20032;-76
2021/04/10 13:23:05;;;;;;;4.20;0.70;;;19.20;72.20;;;;;;5129269;28;20027;-77
2021/04/10 13:25:30;;;;;;;9.20;1.00;;;19.50;70.10;;;;;;5127870;28;20031;-77
2021/04/10 13:27:56;;;;;;;1.40;0.65;;;20.10;67.70;;;;;;5129222;28;20027;-77
2021/04/10 13:30:23;;;;;;;2.50;0.80;;;20.30;67.50;;;;;;5137437;27;20092;-77
2021/04/10 13:32:49;;;;;;;1.58;0.60;;;20.50;64.70;;;;;;5149867;27;20044;-76
2021/04/10 13:35:14;;;;;;;3.00;0.90;;;20.20;66.50;;;;;;5149996;27;20019;-76
2021/04/10 13:37:40;;;;;;;1.50;0.93;;;20.00;65.00;;;;;;5130944;27;20041;-76
2021/04/10 13:40:07;;;;;;;2.88;1.33;;;20.20;64.00;;;;;;5149168;27;20027;-76
2021/04/10 13:42:33;;;;;;;2.17;0.68;;;20.00;63.00;;;;;;5139179;27;20023;-76
2021/04/10 13:44:59;;;;;;;2.53;0.80;;;19.90;63.40;;;;;;5128941;27;20468;-76
2021/04/10 13:47:24;;;;;;;2.00;0.80;;;20.10;62.30;;;;;;5135034;27;20084;-77
2021/04/10 13:49:50;;;;;;;2.05;0.60;;;19.60;63.70;;;;;;5148896;27;20027;-76
2021/04/10 13:52:16;;;;;;;1.70;0.40;;;18.90;63.40;;;;;;5142194;27;20038;-76
2021/04/10 13:54:41;;;;;;;3.58;0.60;;;19.10;64.30;;;;;;5128640;27;20484;-76
2021/04/10 13:57:08;;;;;;;1.73;0.43;;;18.80;63.70;;;;;;5133991;27;20031;-76
2021/04/10 13:59:33;;;;;;;4.60;0.80;;;18.90;64.80;;;;;;5148782;27;20398;-78
2021/04/10 14:01:59;;;;;;;1.48;0.80;;;19.00;65.40;;;;;;5144180;27;20051;-76
2021/04/10 14:04:30;;;;;;;1.73;0.60;;;19.90;63.20;;;;;;5128519;27;20019;-76
2021/04/10 14:06:56;;;;;;;1.05;0.50;;;20.90;60.20;;;;;;5132372;27;20498;-77
2021/04/10 14:09:22;;;;;;;2.95;1.00;;;21.00;60.40;;;;;;5139422;27;20101;-77
2021/04/10 14:11:48;;;;;;;1.88;0.80;;;21.10;59.10;;;;;;5133209;27;20048;-76
2021/04/10 14:14:14;;;;;;;1.77;0.63;;;21.00;58.10;;;;;;5135337;27;20019;-77
2021/04/10 14:16:40;;;;;;;1.00;0.77;;;21.40;57.80;;;;;;5133076;27;20080;-76
2021/04/10 14:19:06;;;;;;;1.40;0.50;;;22.30;56.30;;;;;;5114128;28;20031;-77
2021/04/10 14:21:32;;;;;;;1.88;0.60;;;22.80;54.90;;;;;;5132611;27;20023;-76
2021/04/10 14:23:58;;;;;;;2.58;0.50;;;24.20;52.70;;;;;;5114117;28;20453;-76
2021/04/10 14:26:25;;;;;;;0.55;0.50;;;25.20;50.40;;;;;;5114276;28;20103;-76
2021/04/10 14:28:54;;;;;;;1.08;0.43;;;25.80;50.00;;;;;;5134553;27;20020;-77
2021/04/10 14:31:23;;;;;;;2.70;0.60;;;26.80;47.50;;;;;;5134292;27;20019;-76
2021/04/10 14:33:51;;;;;;;3.67;1.33;;;26.60;45.90;;;;;;5114764;27;20023;-76
2021/04/10 14:36:17;;;;;;;1.67;0.60;;;26.10;47.10;;;;;;5114058;28;20028;-77
2021/04/10 14:38:43;;;;;;;1.50;0.73;;;25.80;46.40;;;;;;5133270;27;20491;-77
2021/04/10 14:41:09;;;;;;;2.05;0.60;;;25.40;46.30;;;;;;5134261;27;20173;-77
2021/04/10 14:43:35;;;;;;;1.70;0.60;;;24.90;47.90;;;;;;5116735;27;20099;-77
2021/04/10 14:46:00;;;;;;;2.13;0.60;;;24.00;47.90;;;;;;5114386;27;20106;-76
2021/04/10 14:48:26;;;;;;;2.42;0.70;;;24.40;47.80;;;;;;5131116;27;20551;-76
2021/04/10 14:50:53;;;;;;;1.67;0.60;;;24.90;46.70;;;;;;5134205;27;20031;-75
2021/04/10 14:53:25;;;;;;;1.60;0.52;;;25.30;45.60;;;;;;5118497;27;20051;-76
2021/04/10 14:55:56;;;;;;;1.98;0.70;;;25.90;45.50;;;;;;5114162;27;20082;-75
2021/04/10 14:58:22;;;;;;;2.05;0.65;;;26.60;44.10;;;;;;5129829;27;20076;-76
2021/04/10 15:00:47;;;;;;;3.20;0.75;;;27.60;43.40;;;;;;5133948;27;20019;-76
2021/04/10 15:03:13;;;;;;;3.72;0.93;;;28.20;43.20;;;;;;5119124;27;20031;-76
2021/04/10 15:05:39;;;;;;;3.08;1.65;;;29.10;41.20;;;;;;5113883;28;20075;-75
2021/04/10 15:08:05;;;;;;;3.13;1.67;;;29.30;40.60;;;;;;5126666;27;20031;-77
2021/04/10 15:10:31;;;;;;;2.45;1.00;;;29.40;40.90;;;;;;5128792;27;20030;-77
2021/04/10 15:12:56;;;;;;;4.80;0.73;;;28.80;40.50;;;;;;5133512;27;20394;-77
2021/04/10 15:15:22;;;;;;;4.18;0.73;;;28.70;40.80;;;;;;5133663;27;20032;-77
2021/04/10 15:17:48;;;;;;;3.70;0.95;;;26.40;39.70;;;;;;5122291;27;20038;-76
2021/04/10 15:20:17;;;;;;;2.47;0.80;;;27.00;41.60;;;;;;5119928;27;20093;-76
2021/04/10 15:22:42;;;;;;;4.30;0.90;;;26.70;42.40;;;;;;5127590;27;20403;-76
2021/04/10 15:25:10;;;;;;;1.48;0.70;;;26.40;41.70;;;;;;5122147;27;20073;-77
2021/04/10 15:27:36;;;;;;;1.88;0.70;;;25.80;42.60;;;;;;5120367;27;20079;-77
2021/04/10 15:30:03;;;;;;;1.88;0.93;;;26.00;42.90;;;;;;5128567;27;20019;-74
2021/04/10 15:32:29;;;;;;;3.65;1.10;;;25.60;42.80;;;;;;5120506;27;20110;-75
2021/04/10 15:34:54;;;;;;;2.15;0.68;;;25.00;43.90;;;;;;5109847;28;20519;-75
2021/04/10 15:37:20;;;;;;;3.10;1.70;;;24.10;45.30;;;;;;5115711;27;20023;-75
2021/04/10 15:39:48;;;;;;;1.90;0.63;;;23.40;45.90;;;;;;5129105;27;20027;-74
2021/04/10 15:42:16;;;;;;;3.42;1.23;;;22.80;45.50;;;;;;5122614;27;20032;-74
2021/04/10 15:44:42;;;;;;;4.65;1.85;;;24.50;43.90;;;;;;5109287;28;20646;-75
2021/04/10 15:47:08;;;;;;;4.15;1.33;;;24.40;43.60;;;;;;5114792;27;20031;-75
2021/04/10 15:49:34;;;;;;;3.83;1.90;;;24.00;44.70;;;;;;5129856;27;20042;-75
2021/04/10 15:52:00;;;;;;;5.65;2.38;;;23.30;45.50;;;;;;5125034;27;20023;-75
2021/04/10 15:54:26;;;;;;;6.45;1.73;;;22.00;47.70;;;;;;5107592;28;20055;-74
2021/04/10 15:56:52;;;;;;;1.73;0.80;;;21.00;48.20;;;;;;5111166;27;20027;-75
2021/04/10 15:59:18;;;;;;;1.60;0.70;;;20.60;50.20;;;;;;5128965;27;20019;-75
2021/04/10 16:01:44;;;;;;;4.65;1.33;;;20.40;50.70;;;;;;5126307;27;20031;-75
2021/04/10 16:04:10;;;;;;;7.30;2.97;;;20.20;50.80;;;;;;5127985;27;20019;-76
2021/04/10 16:06:37;;;;;;;4.57;1.65;;;20.20;51.50;;;;;;5127074;27;20023;-76
2021/04/10 16:09:05;;;;;;;2.85;1.83;;;20.00;52.30;;;;;;5109173;28;20026;-76
2021/04/10 16:11:31;;;;;;;2.92;0.90;;;19.80;53.30;;;;;;5108731;28;20548;-76
2021/04/10 16:13:56;;;;;;;1.88;1.23;;;19.70;53.50;;;;;;5129300;27;20050;-77
2021/04/10 16:16:22;;;;;;;1.65;1.05;;;19.40;54.20;;;;;;5128837;27;20398;-76
2021/04/10 16:18:48;;;;;;;2.13;1.20;;;19.10;54.40;;;;;;5130445;27;20127;-77
2021/04/10 16:21:13;;;;;;;2.80;0.70;;;19.20;54.70;;;;;;5128409;27;20035;-77
2021/04/10 16:23:39;;;;;;;2.28;0.90;;;18.90;55.30;;;;;;5110567;28;20500;-77
2021/04/10 16:26:05;;;;;;;2.05;0.90;;;18.70;55.90;;;;;;5107059;28;20391;-77
2021/04/10 16:28:30;;;;;;;0.80;0.50;;;18.60;56.00;;;;;;5125266;27;20510;-77
2021/04/10 16:30:56;;;;;;;1.52;0.63;;;18.50;56.20;;;;;;5128647;27;20031;-78
2021/04/10 16:33:22;;;;;;;2.33;0.93;;;18.40;56.60;;;;;;5114233;27;20028;-77
2021/04/10 16:35:47;;;;;;;1.73;0.80;;;18.30;57.30;;;;;;5109133;28;20036;-77
2021/04/10 16:38:13;;;;;;;2.65;0.88;;;18.20;57.90;;;;;;5124989;27;20035;-77
2021/04/10 16:40:40;;;;;;;3.63;0.80;;;18.20;57.70;;;;;;5131995;27;20023;-77
2021/04/10 16:43:06;;;;;;;5.88;1.40;;;18.10;57.60;;;;;;5118796;27;20024;-77
2021/04/10 16:45:32;;;;;;;2.20;1.10;;;18.10;57.90;;;;;;5110993;28;20019;-77
2021/04/10 16:47:58;;;;;;;1.63;0.98;;;17.90;58.30;;;;;;5125217;27;20031;-77
2021/04/10 16:50:24;;;;;;;2.35;0.77;;;17.80;58.60;;;;;;5130904;27;20391;-78
2021/04/10 16:52:49;;;;;;;1.92;0.98;;;17.60;59.00;;;;;;5121349;27;20411;-77
2021/04/10 16:55:16;;;;;;;2.30;1.00;;;17.70;59.70;;;;;;5111152;28;20024;-77
2021/04/10 16:57:42;;;;;;;2.65;1.23;;;17.30;59.80;;;;;;5094209;28;20035;-77
2021/04/10 17:00:12;;;;;;;3.67;1.10;;;17.30;60.20;;;;;;5111747;28;20391;-77
2021/04/10 17:02:37;;;;;;;1.98;1.30;;;17.10;60.30;;;;;;5121269;27;20518;-77
2021/04/10 17:05:05;;;;;;;3.03;1.58;;;16.90;60.90;;;;;;5132325;27;20027;-77
2021/04/10 17:07:31;;;;;;;2.38;1.33;;;16.80;61.30;;;;;;5122838;28;20113;-77
2021/04/10 17:09:56;;;;;;;3.75;1.10;;;16.70;62.30;;;;;;5111176;28;20085;-76
2021/04/10 17:12:22;;;;;;;1.65;0.90;;;16.40;62.00;;;;;;5119431;28;20155;-76
2021/04/10 17:14:48;;;;;;;2.22;1.10;;;16.50;63.40;;;;;;5132290;27;20027;-76
2021/04/10 17:17:14;;;;;;;3.33;1.33;;;16.40;63.70;;;;;;5125243;27;20100;-76
2021/04/10 17:19:39;;;;;;;3.13;1.10;;;16.30;64.10;;;;;;5122273;27;20027;-77
2021/04/10 17:22:05;;;;;;;3.13;1.25;;;16.20;65.00;;;;;;5146165;27;20024;-76
2021/04/10 17:24:33;;;;;;;3.05;1.30;;;16.10;66.30;;;;;;5130736;27;20023;-76
2021/04/10 17:26:58;;;;;;;3.17;1.95;;;16.00;66.70;;;;;;5127689;28;20038;-77
2021/04/10 17:29:24;;;;;;;5.05;2.58;;;16.00;68.20;;;;;;5111407;28;20028;-76
2021/04/10 17:31:51;;;;;;;4.95;2.78;;;15.90;69.00;;;;;;5111809;28;20152;-76
2021/04/10 17:34:17;;;;;;;6.18;2.72;;;15.80;69.40;;;;;;5111633;28;20042;-76
2021/04/10 17:36:43;;;;;;;4.53;2.35;;;15.80;70.50;;;;;;5113012;28;20080;-77
2021/04/10 17:39:09;;;;;;;3.58;1.90;;;15.70;71.20;;;;;;5131622;27;20023;-77
2021/04/10 17:41:35;;;;;;;4.65;2.00;;;15.70;71.80;;;;;;5128929;27;20015;-77
2021/04/10 17:44:02;;;;;;;4.20;2.40;;;15.60;72.60;;;;;;5112812;28;20079;-77
2021/04/10 17:46:28;;;;;;;7.60;4.80;;;15.50;73.60;;;;;;5114287;28;20668;-77
2021/04/10 17:48:53;;;;;;;7.28;4.93;;;15.40;74.00;;;;;;5115172;28;20023;-77
2021/04/10 17:51:20;;;;;;;14.25;7.72;;;15.40;75.30;;;;;;5132021;27;20023;-77
2021/04/10 17:53:46;;;;;;;8.13;5.28;;;15.50;77.00;;;;;;5122525;27;20039;-77
2021/04/10 17:56:13;;;;;;;9.80;6.35;;;15.30;77.40;;;;;;5134173;27;20360;-77
2021/04/10 17:58:40;;;;;;;11.13;7.05;;;15.00;78.40;;;;;;5134690;27;20035;-77
2021/04/10 18:01:07;;;;;;;8.43;5.50;;;15.10;80.60;;;;;;5135506;27;20391;-77
2021/04/10 18:03:34;;;;;;;6.03;3.03;;;15.10;81.20;;;;;;5117794;27;20055;-77
2021/04/10 18:06:02;;;;;;;6.25;2.58;;;15.10;82.60;;;;;;5114940;28;20019;-77
2021/04/10 18:08:28;;;;;;;3.75;1.50;;;15.00;83.90;;;;;;5131466;27;20031;-77
2021/04/10 18:10:54;;;;;;;5.30;1.80;;;15.10;85.80;;;;;;5134924;27;20042;-76
2021/04/10 18:13:19;;;;;;;8.40;2.13;;;15.00;87.30;;;;;;5119574;27;20084;-76
2021/04/10 18:15:45;;;;;;;3.28;1.77;;;15.00;89.00;;;;;;5113896;28;20506;-76
2021/04/10 18:18:12;;;;;;;5.13;1.95;;;14.90;90.70;;;;;;5128954;27;20126;-78
2021/04/10 18:20:37;;;;;;;4.80;1.63;;;14.80;91.30;;;;;;5128635;27;20029;-77
2021/04/10 18:23:04;;;;;;;3.38;1.60;;;14.80;92.50;;;;;;5123724;27;20094;-77
2021/04/10 18:25:30;;;;;;;2.70;1.70;;;14.70;93.20;;;;;;5125045;27;20022;-79
2021/04/10 18:27:55;;;;;;;3.45;2.20;;;14.70;94.40;;;;;;5111518;27;20031;-78
2021/04/10 18:30:22;;;;;;;5.22;1.70;;;14.50;95.00;;;;;;5123963;27;20038;-77
2021/04/10 18:32:49;;;;;;;6.78;1.75;;;14.60;95.70;;;;;;5121418;27;20121;-76
2021/04/10 18:35:17;;;;;;;3.72;1.48;;;14.50;96.80;;;;;;5110743;27;20027;-78
2021/04/10 18:37:42;;;;;;;2.95;1.55;;;14.50;97.40;;;;;;5124080;27;20035;-76
2021/04/10 18:40:09;;;;;;;3.05;1.60;;;14.40;98.30;;;;;;5127613;27;20150;-76
2021/04/10 18:42:35;;;;;;;5.10;1.70;;;14.30;98.80;;;;;;5126570;27;20380;-76
2021/04/10 18:45:02;;;;;;;3.00;1.90;;;14.60;99.80;;;;;;5128040;27;20023;-77
2021/04/10 18:47:28;;;;;;;2.78;1.90;;;14.30;99.90;;;;;;5122488;27;20390;-76
2021/04/10 18:49:54;;;;;;;4.72;2.20;;;14.20;99.90;;;;;;5123369;27;20111;-77
2021/04/10 18:52:20;;;;;;;4.60;2.50;;;14.20;99.90;;;;;;5124114;27;20556;-78
2021/04/10 18:54:46;;;;;;;4.03;2.10;;;14.20;99.90;;;;;;5124117;27;20030;-77
